createdAt,value
2023-03-22T00:02:08.131Z,25.30
2023-03-22T00:04:34.622Z,24.23
2023-03-22T00:07:01.318Z,27.00
2023-03-22T00:09:27.735Z,25.27
2023-03-22T00:11:54.340Z,27.13
2023-03-22T00:14:21.113Z,26.02
2023-03-22T00:16:49.128Z,25.45
2023-03-22T00:19:17.412Z,25.80
2023-03-22T00:21:44.675Z,28.13
2023-03-22T00:24:11.095Z,25.50
2023-03-22T00:26:37.826Z,26.65
2023-03-22T00:29:04.407Z,25.73
2023-03-22T00:31:33.918Z,26.60
2023-03-22T00:34:00.582Z,25.98
2023-03-22T00:36:27.031Z,25.95
2023-03-22T00:38:53.454Z,27.48
2023-03-22T00:41:24.045Z,28.05
2023-03-22T00:43:51.711Z,28.70
2023-03-22T00:46:20.554Z,28.77
2023-03-22T00:48:47.314Z,29.75
2023-03-22T00:51:15.504Z,27.67
2023-03-22T00:53:43.472Z,28.52
2023-03-22T00:56:14.521Z,27.05
2023-03-22T00:58:42.167Z,27.08
2023-03-22T01:01:09.154Z,30.05
2023-03-22T01:03:35.879Z,29.42
2023-03-22T01:06:02.548Z,29.58
2023-03-22T01:08:33.250Z,28.95
2023-03-22T01:11:01.109Z,28.58
2023-03-22T01:13:28.111Z,29.70
2023-03-22T01:15:54.561Z,29.60
2023-03-22T01:18:22.322Z,27.75
2023-03-22T01:20:48.814Z,28.15
2023-03-22T01:23:15.297Z,28.17
2023-03-22T01:25:41.900Z,28.63
2023-03-22T01:28:08.712Z,27.73
2023-03-22T01:30:35.513Z,29.98
2023-03-22T01:33:02.178Z,31.08
2023-03-22T01:35:28.961Z,28.00
2023-03-22T01:37:55.518Z,26.98
2023-03-22T01:40:22.097Z,29.13
2023-03-22T01:42:48.659Z,30.45
2023-03-22T01:45:15.392Z,29.33
2023-03-22T01:47:46.064Z,29.45
2023-03-22T01:50:13.022Z,28.73
2023-03-22T01:52:41.305Z,29.75
2023-03-22T01:55:11.940Z,29.88
2023-03-22T01:57:39.730Z,29.15
2023-03-22T02:00:10.926Z,29.45
2023-03-22T02:02:37.464Z,29.90
2023-03-22T02:05:04.626Z,29.88
2023-03-22T02:07:31.874Z,28.98
2023-03-22T02:10:01.492Z,28.48
2023-03-22T02:12:59.527Z,28.58
2023-03-22T02:15:55.848Z,27.00
2023-03-22T02:18:48.036Z,28.67
2023-03-22T02:21:23.796Z,29.73
2023-03-22T02:24:08.800Z,28.35
2023-03-22T02:26:47.029Z,28.85
2023-03-22T02:29:21.929Z,28.77
2023-03-22T02:32:25.494Z,29.23
2023-03-22T02:35:13.816Z,28.23
2023-03-22T02:37:43.214Z,27.75
2023-03-22T02:40:21.722Z,28.02
2023-03-22T02:43:01.236Z,28.45
2023-03-22T02:45:39.008Z,29.02
2023-03-22T02:48:14.674Z,29.58
2023-03-22T02:50:48.893Z,27.58
2023-03-22T02:53:27.713Z,28.60
2023-03-22T02:56:13.497Z,27.20
2023-03-22T02:58:46.026Z,28.95
2023-03-22T03:01:21.261Z,27.67
2023-03-22T03:03:50.786Z,27.77
2023-03-22T03:06:21.621Z,28.77
2023-03-22T03:08:50.846Z,29.33
2023-03-22T03:11:18.038Z,28.08
2023-03-22T03:13:47.741Z,27.88
2023-03-22T03:16:20.247Z,28.48
2023-03-22T03:19:00.909Z,27.92
2023-03-22T03:22:23.106Z,27.77
2023-03-22T03:25:06.755Z,26.52
2023-03-22T03:27:46.206Z,26.80
2023-03-22T03:30:27.120Z,27.98
2023-03-22T03:33:09.365Z,27.30
2023-03-22T03:35:46.529Z,26.35
2023-03-22T03:38:18.589Z,27.55
2023-03-22T03:40:50.307Z,27.55
2023-03-22T03:43:18.058Z,28.02
2023-03-22T03:45:45.829Z,27.73
2023-03-22T03:48:20.185Z,27.45
2023-03-22T03:50:50.838Z,28.35
2023-03-22T03:53:17.289Z,27.42
2023-03-22T03:55:44.032Z,26.00
2023-03-22T03:58:10.789Z,26.55
2023-03-22T04:00:38.181Z,26.85
2023-03-22T04:03:05.881Z,26.30
2023-03-22T04:05:33.108Z,26.77
2023-03-22T04:07:59.970Z,26.42
2023-03-22T04:10:26.481Z,26.70
2023-03-22T04:12:53.072Z,26.48
2023-03-22T04:15:19.508Z,25.27
2023-03-22T04:17:46.713Z,25.55
2023-03-22T04:20:13.820Z,26.48
2023-03-22T04:22:41.525Z,26.60
2023-03-22T04:25:14.238Z,25.65
2023-03-22T04:27:42.580Z,25.70
2023-03-22T04:30:18.737Z,26.70
2023-03-22T04:32:49.260Z,25.92
2023-03-22T04:35:16.746Z,26.17
2023-03-22T04:37:43.614Z,25.42
2023-03-22T04:40:17.180Z,24.38
2023-03-22T04:42:44.929Z,24.33
2023-03-22T04:45:13.111Z,24.63
2023-03-22T04:47:39.960Z,26.33
2023-03-22T04:50:07.856Z,26.08
2023-03-22T04:52:34.288Z,25.77
2023-03-22T04:55:01.028Z,24.90
2023-03-22T04:57:27.565Z,24.65
2023-03-22T04:59:54.042Z,25.35
2023-03-22T05:02:20.772Z,26.08
2023-03-22T05:04:47.225Z,26.50
2023-03-22T05:07:13.841Z,24.92
2023-03-22T05:09:40.509Z,24.88
2023-03-22T05:12:07.126Z,25.45
2023-03-22T05:14:33.576Z,24.30
2023-03-22T05:17:00.199Z,24.77
2023-03-22T05:19:26.777Z,23.10
2023-03-22T05:21:58.422Z,24.80
2023-03-22T05:24:25.249Z,25.00
2023-03-22T05:26:53.756Z,24.65
2023-03-22T05:29:21.472Z,23.52
2023-03-22T05:31:48.311Z,24.85
2023-03-22T05:34:15.051Z,23.60
2023-03-22T05:36:41.517Z,23.20
2023-03-22T05:39:08.157Z,24.58
2023-03-22T05:41:36.565Z,22.40
2023-03-22T05:44:04.128Z,22.35
2023-03-22T05:46:31.156Z,23.08
2023-03-22T05:48:57.794Z,22.95
2023-03-22T05:51:25.963Z,23.25
2023-03-22T05:53:53.554Z,22.98
2023-03-22T05:56:25.700Z,23.70
2023-03-22T05:58:52.140Z,22.38
2023-03-22T06:01:21.355Z,23.38
2023-03-22T06:03:48.751Z,21.92
2023-03-22T06:06:16.051Z,23.67
2023-03-22T06:08:43.151Z,21.33
2023-03-22T06:11:10.402Z,22.05
2023-03-22T06:13:37.826Z,22.83
2023-03-22T06:16:05.977Z,22.02
2023-03-22T06:18:33.316Z,21.20
2023-03-22T06:21:00.056Z,22.48
2023-03-22T06:23:27.014Z,22.15
2023-03-22T06:25:53.558Z,21.85
2023-03-22T06:28:20.091Z,21.63
2023-03-22T06:30:46.619Z,21.33
2023-03-22T06:33:13.149Z,20.50
2023-03-22T06:35:39.719Z,21.15
2023-03-22T06:38:06.386Z,20.10
2023-03-22T06:40:32.794Z,19.85
2023-03-22T06:43:02.292Z,20.45
2023-03-22T06:45:33.382Z,20.73
2023-03-22T06:48:01.153Z,21.45
2023-03-22T06:50:28.811Z,19.52
2023-03-22T06:52:55.691Z,19.75
2023-03-22T06:55:22.320Z,20.00
2023-03-22T06:57:48.793Z,19.80
2023-03-22T07:00:16.050Z,19.83
2023-03-22T07:02:42.478Z,18.40
2023-03-22T07:05:09.329Z,19.83
2023-03-22T07:07:35.815Z,19.38
2023-03-22T07:10:02.274Z,20.38
2023-03-22T07:12:28.721Z,19.27
2023-03-22T07:14:55.386Z,20.00
2023-03-22T07:17:21.880Z,18.92
2023-03-22T07:19:48.845Z,20.95
2023-03-22T07:22:15.493Z,19.08
2023-03-22T07:24:53.852Z,19.85
2023-03-22T07:27:23.140Z,19.17
2023-03-22T07:29:49.580Z,20.20
2023-03-22T07:32:16.547Z,20.55
2023-03-22T07:34:43.108Z,20.35
2023-03-22T07:37:09.749Z,20.17
2023-03-22T07:39:36.556Z,19.38
2023-03-22T07:42:03.748Z,19.48
2023-03-22T07:44:30.379Z,20.05
2023-03-22T07:46:57.108Z,20.83
2023-03-22T07:49:23.603Z,19.90
2023-03-22T07:51:50.282Z,22.50
2023-03-22T07:54:32.231Z,21.23
2023-03-22T07:56:59.349Z,22.15
2023-03-22T07:59:25.884Z,20.92
2023-03-22T08:01:52.535Z,22.60
2023-03-22T08:04:20.883Z,21.90
2023-03-22T08:06:47.327Z,22.08
2023-03-22T08:09:13.929Z,22.85
2023-03-22T08:11:40.609Z,22.27
2023-03-22T08:14:07.113Z,21.80
2023-03-22T08:16:33.848Z,21.73
2023-03-22T08:19:01.174Z,21.50
2023-03-22T08:21:27.629Z,22.63
2023-03-22T08:23:54.415Z,22.13
2023-03-22T08:26:22.118Z,21.60
2023-03-22T08:28:48.602Z,22.33
2023-03-22T08:31:17.036Z,22.40
2023-03-22T08:33:44.342Z,22.05
2023-03-22T08:36:13.856Z,21.65
2023-03-22T08:38:42.440Z,23.17
2023-03-22T08:41:09.322Z,23.30
2023-03-22T08:43:35.818Z,23.75
2023-03-22T08:46:02.438Z,20.95
2023-03-22T08:48:30.639Z,20.33
2023-03-22T08:50:58.083Z,20.88
2023-03-22T08:53:24.731Z,20.98
2023-03-22T08:55:51.308Z,23.42
2023-03-22T08:58:19.946Z,22.45
2023-03-22T09:00:49.449Z,21.88
2023-03-22T09:03:17.277Z,21.95
2023-03-22T09:05:43.870Z,22.05
2023-03-22T09:08:18.479Z,20.15
2023-03-22T09:10:51.533Z,19.40
2023-03-22T09:13:18.430Z,18.77
2023-03-22T09:15:47.439Z,20.17
2023-03-22T09:18:14.576Z,20.00
2023-03-22T09:20:41.400Z,18.00
2023-03-22T09:23:08.052Z,17.73
2023-03-22T09:25:34.506Z,18.05
2023-03-22T09:28:01.699Z,16.90
2023-03-22T09:30:28.430Z,16.92
2023-03-22T09:32:54.886Z,17.48
2023-03-22T09:35:21.664Z,17.15
2023-03-22T09:37:49.583Z,16.45
2023-03-22T09:40:19.414Z,15.88
2023-03-22T09:42:50.654Z,15.48
2023-03-22T09:45:22.930Z,16.13
2023-03-22T09:47:54.255Z,14.82
2023-03-22T09:50:23.129Z,16.08
2023-03-22T09:52:50.643Z,14.93
2023-03-22T09:55:37.902Z,14.10
2023-03-22T09:58:17.249Z,14.65
2023-03-22T10:00:48.189Z,14.70
2023-03-22T10:03:26.858Z,14.13
2023-03-22T10:06:02.338Z,14.23
2023-03-22T10:08:58.247Z,14.10
2023-03-22T10:11:54.655Z,14.40
2023-03-22T10:14:42.240Z,14.25
2023-03-22T10:17:13.850Z,13.30
2023-03-22T10:19:57.786Z,13.18
2023-03-22T10:22:32.473Z,14.68
2023-03-22T10:25:01.071Z,13.20
2023-03-22T10:27:30.321Z,11.90
2023-03-22T10:30:09.070Z,11.80
2023-03-22T10:32:57.627Z,11.40
2023-03-22T10:35:25.353Z,11.88
2023-03-22T10:37:54.724Z,12.75
2023-03-22T10:40:27.530Z,12.07
2023-03-22T10:43:03.536Z,10.90
2023-03-22T10:45:33.840Z,12.55
2023-03-22T10:48:34.926Z,12.65
2023-03-22T10:51:02.272Z,12.95
2023-03-22T10:53:49.649Z,12.40
2023-03-22T10:56:20.044Z,13.13
2023-03-22T10:58:48.973Z,11.57
2023-03-22T11:01:25.494Z,11.77
2023-03-22T11:03:56.180Z,12.07
2023-03-22T11:06:32.846Z,12.20
2023-03-22T11:09:02.476Z,12.48
2023-03-22T11:11:31.863Z,12.25
2023-03-22T11:14:11.774Z,12.13
2023-03-22T11:16:58.206Z,11.55
2023-03-22T11:19:28.044Z,11.57
2023-03-22T11:21:57.336Z,11.90
2023-03-22T11:24:26.410Z,12.57
2023-03-22T11:27:06.746Z,11.82
2023-03-22T11:29:46.459Z,12.13
2023-03-22T11:32:36.840Z,11.57
2023-03-22T11:35:26.824Z,11.82
2023-03-22T11:37:55.825Z,12.45
2023-03-22T11:40:28.163Z,11.65
2023-03-22T11:43:09.825Z,12.60
2023-03-22T11:45:41.160Z,11.95
2023-03-22T11:48:17.339Z,12.32
2023-03-22T11:50:45.935Z,11.73
2023-03-22T11:53:16.724Z,12.35
2023-03-22T11:55:44.434Z,11.23
2023-03-22T11:58:26.227Z,11.52
2023-03-22T12:01:02.852Z,11.57
2023-03-22T12:03:36.749Z,12.90
2023-03-22T12:06:16.687Z,11.80
2023-03-22T12:08:49.641Z,11.80
2023-03-22T12:11:28.129Z,11.30
2023-03-22T12:14:12.330Z,11.35
2023-03-22T12:16:49.876Z,11.77
2023-03-22T12:19:37.995Z,11.60
2023-03-22T12:22:12.687Z,11.95
2023-03-22T12:24:40.394Z,12.00
2023-03-22T12:27:18.874Z,11.60
2023-03-22T12:29:59.256Z,11.88
2023-03-22T12:32:30.137Z,12.10
2023-03-22T12:35:09.153Z,12.82
2023-03-22T12:37:42.921Z,13.02
2023-03-22T12:40:28.638Z,11.95
2023-03-22T12:43:06.173Z,11.48
2023-03-22T12:45:39.486Z,12.38
2023-03-22T12:48:20.363Z,11.98
2023-03-22T12:50:56.657Z,13.38
2023-03-22T12:53:28.081Z,13.45
2023-03-22T12:55:56.114Z,14.88
2023-03-22T12:58:25.695Z,16.67
2023-03-22T13:01:22.251Z,17.45
2023-03-22T13:03:54.994Z,17.20
2023-03-22T13:06:54.346Z,17.98
2023-03-22T13:09:37.063Z,18.42
2023-03-22T13:12:28.968Z,19.38
2023-03-22T13:14:58.707Z,17.92
2023-03-22T13:17:25.635Z,18.48
2023-03-22T13:20:07.656Z,17.77
2023-03-22T13:22:37.498Z,18.48
2023-03-22T13:25:12.337Z,20.02
2023-03-22T13:27:51.599Z,18.30
2023-03-22T13:30:26.276Z,19.83
2023-03-22T13:32:56.442Z,20.67
2023-03-22T13:35:56.772Z,19.63
2023-03-22T13:40:51.871Z,18.13
2023-03-22T13:43:29.314Z,17.52
2023-03-22T13:46:01.463Z,17.48
2023-03-22T13:49:04.176Z,17.92
2023-03-22T13:51:34.162Z,17.70
2023-03-22T13:54:13.265Z,18.35
2023-03-22T13:56:57.008Z,17.75
2023-03-22T13:59:27.217Z,17.67
2023-03-22T14:04:46.236Z,16.77
2023-03-22T14:07:37.173Z,15.90
2023-03-22T14:10:13.661Z,15.93
2023-03-22T14:13:01.129Z,13.73
2023-03-22T14:15:32.308Z,13.45
2023-03-22T14:18:03.999Z,12.70
2023-03-22T14:20:35.507Z,12.48
